EZY42JA EGKK-EHAM
Flight info
| Callsign | EZY42JA |
|---|---|
| Flight time | 0h 39m |
| Altitude | 23000 |
| Route | FRANE M604 GASBA M197 REDFA |
| Aircraft | A319/M-SDE3FGHIRWY/LB1 |
Departure
| Time | 2026-05-07 16:47 |
|---|---|
| Airport | London Gatwick Airport (EGKK) |
Arrival
| Time | 2026-05-07 17:26 |
|---|---|
| Airport | Amsterdam Airport Schiphol (EHAM) |
| Time | Latitude | Longitude | Altitude | Speed | Heading |
|---|---|---|---|---|---|
| 2026-05-07 16:28 | 51.15595 | -0.17623 | 204 ft | 0 kts | 348° |
| 2026-05-07 16:33 | 51.15590 | -0.17621 | 215 ft | 3 kts | 348° |
| 2026-05-07 16:33 | 51.15564 | -0.17612 | 210 ft | 4 kts | 345° |
| 2026-05-07 16:34 | 51.15539 | -0.17598 | 210 ft | 4 kts | 323° |
| 2026-05-07 16:34 | 51.15528 | -0.17576 | 217 ft | 0 kts | 258° |
| 2026-05-07 16:38 | 51.15528 | -0.17577 | 204 ft | 1 kts | 258° |
| 2026-05-07 16:38 | 51.15525 | -0.17604 | 209 ft | 4 kts | 258° |
| 2026-05-07 16:38 | 51.15517 | -0.17662 | 212 ft | 7 kts | 258° |
| 2026-05-07 16:38 | 51.15505 | -0.17749 | 204 ft | 9 kts | 257° |
| 2026-05-07 16:39 | 51.15489 | -0.17866 | 213 ft | 12 kts | 257° |
| 2026-05-07 16:39 | 51.15469 | -0.18010 | 208 ft | 14 kts | 257° |
| 2026-05-07 16:39 | 51.15448 | -0.18164 | 213 ft | 14 kts | 257° |
| 2026-05-07 16:39 | 51.15394 | -0.18278 | 206 ft | 14 kts | 180° |
| 2026-05-07 16:40 | 51.15298 | -0.18245 | 212 ft | 14 kts | 167° |
| 2026-05-07 16:40 | 51.15201 | -0.18239 | 214 ft | 14 kts | 214° |
| 2026-05-07 16:40 | 51.15177 | -0.18390 | 205 ft | 14 kts | 259° |
| 2026-05-07 16:40 | 51.15154 | -0.18548 | 207 ft | 15 kts | 257° |
| 2026-05-07 16:41 | 51.15132 | -0.18711 | 205 ft | 16 kts | 258° |
| 2026-05-07 16:41 | 51.15116 | -0.18826 | 205 ft | 16 kts | 258° |
| 2026-05-07 16:41 | 51.15093 | -0.19000 | 206 ft | 16 kts | 258° |
| 2026-05-07 16:41 | 51.15069 | -0.19177 | 210 ft | 17 kts | 257° |
| 2026-05-07 16:42 | 51.15043 | -0.19358 | 211 ft | 17 kts | 257° |
| 2026-05-07 16:42 | 51.15016 | -0.19544 | 210 ft | 18 kts | 257° |
| 2026-05-07 16:42 | 51.14989 | -0.19736 | 206 ft | 18 kts | 258° |
| 2026-05-07 16:42 | 51.14963 | -0.19936 | 205 ft | 19 kts | 258° |
| 2026-05-07 16:43 | 51.14935 | -0.20147 | 205 ft | 20 kts | 258° |
| 2026-05-07 16:43 | 51.14905 | -0.20364 | 205 ft | 20 kts | 257° |
| 2026-05-07 16:43 | 51.14873 | -0.20589 | 205 ft | 21 kts | 257° |
| 2026-05-07 16:43 | 51.14842 | -0.20817 | 204 ft | 21 kts | 258° |
| 2026-05-07 16:44 | 51.14809 | -0.21048 | 210 ft | 21 kts | 257° |
| 2026-05-07 16:44 | 51.14767 | -0.21279 | 213 ft | 22 kts | 255° |
| 2026-05-07 16:44 | 51.14681 | -0.21388 | 211 ft | 16 kts | 155° |
| 2026-05-07 16:44 | 51.14621 | -0.21325 | 207 ft | 0 kts | 172° |
| 2026-05-07 16:45 | 51.14607 | -0.21322 | 204 ft | 5 kts | 172° |
| 2026-05-07 16:45 | 51.14560 | -0.21302 | 204 ft | 9 kts | 153° |
| 2026-05-07 16:45 | 51.14519 | -0.21204 | 210 ft | 12 kts | 101° |
| 2026-05-07 16:46 | 51.14523 | -0.21137 | 205 ft | 0 kts | 75° |
| 2026-05-07 16:46 | 51.14524 | -0.21128 | 209 ft | 4 kts | 75° |
| 2026-05-07 16:47 | 51.14570 | -0.20816 | 208 ft | 66 kts | 78° |
| 2026-05-07 16:47 | 51.14718 | -0.19719 | 209 ft | 133 kts | 78° |
| 2026-05-07 16:47 | 51.14949 | -0.18048 | 451 ft | 161 kts | 80° |
| 2026-05-07 16:47 | 51.15192 | -0.16296 | 1168 ft | 161 kts | 81° |
| 2026-05-07 16:48 | 51.15437 | -0.14505 | 1735 ft | 174 kts | 81° |
| 2026-05-07 16:48 | 51.15708 | -0.12490 | 2104 ft | 197 kts | 79° |
| 2026-05-07 16:48 | 51.16017 | -0.10209 | 2498 ft | 224 kts | 79° |
| 2026-05-07 16:48 | 51.16366 | -0.07653 | 3033 ft | 248 kts | 78° |
| 2026-05-07 16:49 | 51.16746 | -0.04901 | 3849 ft | 259 kts | 78° |
| 2026-05-07 16:49 | 51.16887 | -0.02016 | 4727 ft | 266 kts | 91° |
| 2026-05-07 16:49 | 51.16843 | 0.00930 | 5775 ft | 267 kts | 91° |
| 2026-05-07 16:49 | 51.16784 | 0.03910 | 6735 ft | 271 kts | 92° |
| 2026-05-07 16:50 | 51.16720 | 0.06930 | 7615 ft | 276 kts | 93° |
| 2026-05-07 16:50 | 51.16654 | 0.10016 | 8492 ft | 282 kts | 93° |
| 2026-05-07 16:50 | 51.16591 | 0.13169 | 9373 ft | 287 kts | 93° |
| 2026-05-07 16:50 | 51.16532 | 0.16381 | 10044 ft | 292 kts | 92° |
| 2026-05-07 16:51 | 51.16516 | 0.19631 | 10823 ft | 296 kts | 91° |
| 2026-05-07 16:51 | 51.16538 | 0.22942 | 11509 ft | 306 kts | 89° |
| 2026-05-07 16:51 | 51.17080 | 0.26349 | 11736 ft | 333 kts | 64° |
| 2026-05-07 16:51 | 51.18515 | 0.29384 | 11960 ft | 356 kts | 41° |
| 2026-05-07 16:52 | 51.20622 | 0.31696 | 12536 ft | 366 kts | 32° |
| 2026-05-07 16:52 | 51.22803 | 0.33828 | 13267 ft | 371 kts | 31° |
| 2026-05-07 16:52 | 51.25023 | 0.35977 | 13968 ft | 375 kts | 31° |
| 2026-05-07 16:52 | 51.27274 | 0.38138 | 14625 ft | 379 kts | 29° |
| 2026-05-07 16:53 | 51.29644 | 0.40037 | 15281 ft | 383 kts | 25° |
| 2026-05-07 16:53 | 51.32060 | 0.41862 | 15974 ft | 386 kts | 24° |
| 2026-05-07 16:53 | 51.34517 | 0.43666 | 16627 ft | 391 kts | 24° |
| 2026-05-07 16:53 | 51.36046 | 0.44779 | 16805 ft | 392 kts | 24° |
| 2026-05-07 16:54 | 51.37825 | 0.46124 | 16906 ft | 392 kts | 24° |
| 2026-05-07 16:54 | 51.38661 | 0.46753 | 16930 ft | 392 kts | 24° |
| 2026-05-07 16:54 | 51.41295 | 0.48706 | 17128 ft | 394 kts | 24° |
| 2026-05-07 16:54 | 51.43795 | 0.50539 | 17806 ft | 396 kts | 24° |
| 2026-05-07 16:55 | 51.46316 | 0.52388 | 18475 ft | 399 kts | 24° |
| 2026-05-07 16:55 | 51.48845 | 0.54257 | 19054 ft | 403 kts | 24° |
| 2026-05-07 16:55 | 51.51399 | 0.56158 | 19628 ft | 406 kts | 24° |
| 2026-05-07 16:55 | 51.53962 | 0.58080 | 20212 ft | 409 kts | 24° |
| 2026-05-07 16:56 | 51.56551 | 0.60032 | 20781 ft | 412 kts | 24° |
| 2026-05-07 16:56 | 51.59153 | 0.61996 | 21324 ft | 415 kts | 24° |
| 2026-05-07 16:56 | 51.64421 | 0.65973 | 22381 ft | 421 kts | 24° |
| 2026-05-07 16:57 | 51.67078 | 0.67980 | 22882 ft | 424 kts | 24° |
| 2026-05-07 16:57 | 51.69761 | 0.70006 | 23059 ft | 428 kts | 24° |
| 2026-05-07 16:57 | 51.72531 | 0.72102 | 23085 ft | 438 kts | 24° |
| 2026-05-07 16:57 | 51.75270 | 0.74180 | 23081 ft | 441 kts | 24° |
| 2026-05-07 16:58 | 51.77970 | 0.76678 | 23082 ft | 443 kts | 33° |
| 2026-05-07 16:58 | 51.80357 | 0.79728 | 23081 ft | 444 kts | 42° |
| 2026-05-07 16:58 | 51.82479 | 0.83439 | 23083 ft | 444 kts | 52° |
| 2026-05-07 16:58 | 51.84181 | 0.87604 | 23089 ft | 445 kts | 61° |
| 2026-05-07 16:59 | 51.85487 | 0.92136 | 23086 ft | 445 kts | 70° |
| 2026-05-07 16:59 | 51.86422 | 0.96904 | 23090 ft | 445 kts | 74° |
| 2026-05-07 16:59 | 51.87296 | 1.01691 | 23082 ft | 444 kts | 74° |
| 2026-05-07 16:59 | 51.88173 | 1.06497 | 23085 ft | 444 kts | 74° |
| 2026-05-07 17:00 | 51.89044 | 1.11293 | 23087 ft | 444 kts | 74° |
| 2026-05-07 17:00 | 51.89911 | 1.16089 | 23086 ft | 444 kts | 74° |
| 2026-05-07 17:00 | 51.90777 | 1.20898 | 23090 ft | 444 kts | 74° |
| 2026-05-07 17:00 | 51.91637 | 1.25696 | 23093 ft | 444 kts | 74° |
| 2026-05-07 17:01 | 51.92494 | 1.30503 | 23093 ft | 444 kts | 74° |
| 2026-05-07 17:01 | 51.93349 | 1.35306 | 23094 ft | 444 kts | 74° |
| 2026-05-07 17:01 | 51.94204 | 1.40111 | 23084 ft | 443 kts | 74° |
| 2026-05-07 17:01 | 51.95055 | 1.44915 | 23083 ft | 443 kts | 74° |
| 2026-05-07 17:02 | 51.95905 | 1.49714 | 23084 ft | 443 kts | 74° |
| 2026-05-07 17:02 | 51.96750 | 1.54518 | 23082 ft | 443 kts | 74° |
| 2026-05-07 17:02 | 51.97593 | 1.59319 | 23093 ft | 443 kts | 75° |
| 2026-05-07 17:02 | 51.98432 | 1.64120 | 23091 ft | 443 kts | 75° |
| 2026-05-07 17:03 | 51.99269 | 1.68931 | 23095 ft | 443 kts | 75° |
| 2026-05-07 17:03 | 52.00072 | 1.73760 | 23094 ft | 443 kts | 76° |
| 2026-05-07 17:03 | 52.00833 | 1.78589 | 23090 ft | 443 kts | 76° |
| 2026-05-07 17:03 | 52.01572 | 1.83442 | 23091 ft | 442 kts | 77° |
| 2026-05-07 17:04 | 52.02303 | 1.88299 | 23092 ft | 442 kts | 77° |
| 2026-05-07 17:04 | 52.03034 | 1.93139 | 23088 ft | 442 kts | 76° |
| 2026-05-07 17:04 | 52.03771 | 1.97987 | 23093 ft | 442 kts | 76° |
| 2026-05-07 17:04 | 52.04513 | 2.02833 | 23091 ft | 442 kts | 76° |
| 2026-05-07 17:05 | 52.05257 | 2.07677 | 23090 ft | 442 kts | 76° |
| 2026-05-07 17:05 | 52.06001 | 2.12523 | 23095 ft | 442 kts | 76° |
| 2026-05-07 17:05 | 52.06742 | 2.17369 | 23095 ft | 442 kts | 76° |
| 2026-05-07 17:05 | 52.07479 | 2.22219 | 23085 ft | 442 kts | 76° |
| 2026-05-07 17:06 | 52.08211 | 2.27057 | 23086 ft | 441 kts | 76° |
| 2026-05-07 17:06 | 52.08952 | 2.31965 | 23087 ft | 441 kts | 77° |
| 2026-05-07 17:06 | 52.09678 | 2.36812 | 23078 ft | 441 kts | 77° |
| 2026-05-07 17:06 | 52.10401 | 2.41654 | 23081 ft | 441 kts | 77° |
| 2026-05-07 17:07 | 52.11167 | 2.46463 | 22846 ft | 437 kts | 72° |
| 2026-05-07 17:07 | 52.12311 | 2.51022 | 22581 ft | 434 kts | 63° |
| 2026-05-07 17:07 | 52.13815 | 2.55272 | 22302 ft | 432 kts | 59° |
| 2026-05-07 17:07 | 52.15350 | 2.59468 | 22012 ft | 431 kts | 59° |
| 2026-05-07 17:08 | 52.16876 | 2.63655 | 21584 ft | 428 kts | 59° |
| 2026-05-07 17:08 | 52.18383 | 2.67819 | 21180 ft | 425 kts | 59° |
| 2026-05-07 17:08 | 52.19873 | 2.71954 | 20767 ft | 423 kts | 59° |
| 2026-05-07 17:08 | 52.21353 | 2.76086 | 20365 ft | 420 kts | 59° |
| 2026-05-07 17:09 | 52.22819 | 2.80188 | 19956 ft | 418 kts | 59° |
| 2026-05-07 17:09 | 52.24279 | 2.84270 | 19544 ft | 415 kts | 59° |
| 2026-05-07 17:09 | 52.25732 | 2.88321 | 19156 ft | 413 kts | 59° |
| 2026-05-07 17:09 | 52.27178 | 2.92351 | 18753 ft | 410 kts | 59° |
| 2026-05-07 17:10 | 52.28614 | 2.96354 | 18356 ft | 408 kts | 59° |
| 2026-05-07 17:10 | 52.30039 | 3.00341 | 17934 ft | 405 kts | 59° |
| 2026-05-07 17:10 | 52.31455 | 3.04315 | 17548 ft | 403 kts | 59° |
| 2026-05-07 17:10 | 52.32861 | 3.08264 | 17154 ft | 401 kts | 59° |
| 2026-05-07 17:11 | 52.34257 | 3.12192 | 16770 ft | 399 kts | 60° |
| 2026-05-07 17:11 | 52.35646 | 3.16109 | 16387 ft | 397 kts | 60° |
| 2026-05-07 17:11 | 52.37025 | 3.20012 | 16007 ft | 395 kts | 60° |
| 2026-05-07 17:11 | 52.38394 | 3.23892 | 15626 ft | 393 kts | 60° |
| 2026-05-07 17:12 | 52.39756 | 3.27756 | 15239 ft | 390 kts | 60° |
| 2026-05-07 17:12 | 52.40923 | 3.31074 | 14920 ft | 389 kts | 60° |
| 2026-05-07 17:12 | 52.42311 | 3.35025 | 14528 ft | 387 kts | 60° |
| 2026-05-07 17:12 | 52.43646 | 3.38826 | 14162 ft | 384 kts | 60° |
| 2026-05-07 17:13 | 52.44788 | 3.42762 | 13774 ft | 382 kts | 70° |
| 2026-05-07 17:13 | 52.45303 | 3.45574 | 13504 ft | 380 kts | 77° |
| 2026-05-07 17:13 | 52.45901 | 3.49782 | 13134 ft | 378 kts | 77° |
| 2026-05-07 17:13 | 52.46498 | 3.53961 | 12777 ft | 376 kts | 77° |
| 2026-05-07 17:14 | 52.47095 | 3.58120 | 12414 ft | 374 kts | 77° |
| 2026-05-07 17:14 | 52.47689 | 3.62253 | 12035 ft | 371 kts | 77° |
| 2026-05-07 17:14 | 52.48280 | 3.66363 | 11694 ft | 369 kts | 77° |
| 2026-05-07 17:14 | 52.48865 | 3.70453 | 11337 ft | 367 kts | 77° |
| 2026-05-07 17:15 | 52.49441 | 3.74512 | 10984 ft | 363 kts | 77° |
| 2026-05-07 17:15 | 52.49996 | 3.78461 | 10839 ft | 347 kts | 77° |
| 2026-05-07 17:15 | 52.50482 | 3.82259 | 10727 ft | 338 kts | 84° |
| 2026-05-07 17:15 | 52.50388 | 3.86077 | 10569 ft | 331 kts | 103° |
| 2026-05-07 17:16 | 52.49560 | 3.89516 | 10332 ft | 320 kts | 123° |
| 2026-05-07 17:16 | 52.48192 | 3.92306 | 10088 ft | 310 kts | 133° |
| 2026-05-07 17:16 | 52.46769 | 3.94886 | 9930 ft | 299 kts | 134° |
| 2026-05-07 17:16 | 52.45396 | 3.97376 | 9800 ft | 290 kts | 133° |
| 2026-05-07 17:17 | 52.44047 | 3.99821 | 9662 ft | 288 kts | 133° |
| 2026-05-07 17:17 | 52.42709 | 4.02245 | 9527 ft | 287 kts | 133° |
| 2026-05-07 17:17 | 52.41374 | 4.04661 | 9391 ft | 286 kts | 133° |
| 2026-05-07 17:17 | 52.40042 | 4.07076 | 9258 ft | 285 kts | 134° |
| 2026-05-07 17:18 | 52.38717 | 4.09478 | 9120 ft | 284 kts | 134° |
| 2026-05-07 17:18 | 52.37392 | 4.11876 | 8742 ft | 284 kts | 134° |
| 2026-05-07 17:18 | 52.36068 | 4.14267 | 8329 ft | 283 kts | 134° |
| 2026-05-07 17:18 | 52.34756 | 4.16637 | 7913 ft | 281 kts | 134° |
| 2026-05-07 17:19 | 52.33435 | 4.19021 | 7523 ft | 278 kts | 134° |
| 2026-05-07 17:19 | 52.32145 | 4.21344 | 7197 ft | 274 kts | 134° |
| 2026-05-07 17:19 | 52.30868 | 4.23645 | 6795 ft | 273 kts | 134° |
| 2026-05-07 17:19 | 52.29597 | 4.25932 | 6399 ft | 271 kts | 134° |
| 2026-05-07 17:20 | 52.28403 | 4.28073 | 6003 ft | 269 kts | 134° |
| 2026-05-07 17:20 | 52.27150 | 4.30314 | 5657 ft | 264 kts | 133° |
| 2026-05-07 17:20 | 52.25942 | 4.32475 | 5525 ft | 251 kts | 133° |
| 2026-05-07 17:20 | 52.24795 | 4.34528 | 5380 ft | 239 kts | 133° |
| 2026-05-07 17:21 | 52.23749 | 4.36583 | 5166 ft | 232 kts | 123° |
| 2026-05-07 17:21 | 52.23018 | 4.38910 | 4819 ft | 231 kts | 115° |
| 2026-05-07 17:21 | 52.22344 | 4.41272 | 4480 ft | 229 kts | 115° |
| 2026-05-07 17:21 | 52.21670 | 4.43619 | 4167 ft | 227 kts | 115° |
| 2026-05-07 17:22 | 52.21053 | 4.45965 | 3857 ft | 224 kts | 105° |
| 2026-05-07 17:22 | 52.20866 | 4.48475 | 3505 ft | 224 kts | 90° |
| 2026-05-07 17:22 | 52.20834 | 4.51001 | 3191 ft | 222 kts | 89° |
| 2026-05-07 17:22 | 52.21131 | 4.53436 | 2913 ft | 219 kts | 66° |
| 2026-05-07 17:23 | 52.21894 | 4.55565 | 2632 ft | 216 kts | 58° |
| 2026-05-07 17:23 | 52.22699 | 4.57633 | 2340 ft | 216 kts | 57° |
| 2026-05-07 17:23 | 52.23492 | 4.59677 | 2043 ft | 208 kts | 57° |
| 2026-05-07 17:23 | 52.24249 | 4.61636 | 1764 ft | 199 kts | 57° |
| 2026-05-07 17:24 | 52.24972 | 4.63508 | 1521 ft | 190 kts | 57° |
| 2026-05-07 17:24 | 52.25659 | 4.65285 | 1247 ft | 180 kts | 57° |
| 2026-05-07 17:24 | 52.26302 | 4.66953 | 1013 ft | 166 kts | 56° |
| 2026-05-07 17:24 | 52.26879 | 4.68453 | 786 ft | 143 kts | 57° |
| 2026-05-07 17:25 | 52.27385 | 4.69764 | 596 ft | 131 kts | 57° |
| 2026-05-07 17:25 | 52.27861 | 4.70996 | 419 ft | 128 kts | 56° |
| 2026-05-07 17:25 | 52.28333 | 4.72217 | 247 ft | 127 kts | 56° |
| 2026-05-07 17:25 | 52.28797 | 4.73424 | 84 ft | 125 kts | 57° |
| 2026-05-07 17:26 | 52.29247 | 4.74592 | 1 ft | 111 kts | 58° |
| 2026-05-07 17:26 | 52.29576 | 4.75448 | -2 ft | 69 kts | 57° |
| 2026-05-07 17:26 | 52.29797 | 4.76029 | -4 ft | 54 kts | 58° |
| 2026-05-07 17:26 | 52.29959 | 4.76443 | -3 ft | 31 kts | 50° |
| 2026-05-07 17:27 | 52.30114 | 4.76613 | -1 ft | 16 kts | 27° |
| 2026-05-07 17:27 | 52.30202 | 4.76685 | -1 ft | 14 kts | 29° |
| 2026-05-07 17:27 | 52.30284 | 4.76762 | -1 ft | 14 kts | 35° |
| 2026-05-07 17:27 | 52.30339 | 4.76893 | -1 ft | 14 kts | 58° |
| 2026-05-07 17:28 | 52.30395 | 4.77036 | -1 ft | 15 kts | 57° |
| 2026-05-07 17:28 | 52.30454 | 4.77185 | -1 ft | 16 kts | 58° |
| 2026-05-07 17:28 | 52.30511 | 4.77345 | -1 ft | 17 kts | 57° |
| 2026-05-07 17:28 | 52.30576 | 4.77505 | -1 ft | 17 kts | 56° |
| 2026-05-07 17:29 | 52.30677 | 4.77592 | -1 ft | 17 kts | 2° |
| 2026-05-07 17:29 | 52.30799 | 4.77600 | -1 ft | 18 kts | 2° |
| 2026-05-07 17:29 | 52.30926 | 4.77611 | -1 ft | 19 kts | 3° |
| 2026-05-07 17:29 | 52.31057 | 4.77622 | -1 ft | 19 kts | 2° |
| 2026-05-07 17:30 | 52.31192 | 4.77631 | -1 ft | 20 kts | 2° |
| 2026-05-07 17:30 | 52.31330 | 4.77643 | -1 ft | 20 kts | 3° |
| 2026-05-07 17:30 | 52.31469 | 4.77626 | -1 ft | 20 kts | 338° |
| 2026-05-07 17:30 | 52.31564 | 4.77458 | -1 ft | 21 kts | 297° |
| 2026-05-07 17:31 | 52.31574 | 4.77225 | -1 ft | 21 kts | 266° |
| 2026-05-07 17:31 | 52.31564 | 4.76985 | -1 ft | 21 kts | 266° |
| 2026-05-07 17:31 | 52.31555 | 4.76742 | -1 ft | 22 kts | 266° |
| 2026-05-07 17:31 | 52.31547 | 4.76494 | -1 ft | 22 kts | 266° |
| 2026-05-07 17:32 | 52.31538 | 4.76247 | -1 ft | 22 kts | 266° |
| 2026-05-07 17:32 | 52.31528 | 4.75997 | -1 ft | 22 kts | 266° |
| 2026-05-07 17:32 | 52.31518 | 4.75744 | -1 ft | 23 kts | 268° |
| 2026-05-07 17:32 | 52.31514 | 4.75573 | -1 ft | 23 kts | 268° |
| 2026-05-07 17:33 | 52.31469 | 4.75408 | -1 ft | 12 kts | 181° |
| 2026-05-07 17:33 | 52.31384 | 4.75415 | -1 ft | 13 kts | 176° |
| 2026-05-07 17:33 | 52.31295 | 4.75424 | -1 ft | 13 kts | 176° |
| 2026-05-07 17:33 | 52.31202 | 4.75434 | -1 ft | 14 kts | 176° |
| 2026-05-07 17:34 | 52.31113 | 4.75404 | -1 ft | 14 kts | 228° |
| 2026-05-07 17:34 | 52.31047 | 4.75296 | -1 ft | 13 kts | 208° |
| 2026-05-07 17:34 | 52.30994 | 4.75217 | -1 ft | 6 kts | 236° |
| 2026-05-07 17:34 | 52.30963 | 4.75227 | -1 ft | 5 kts | 146° |
| 2026-05-07 17:35 | 52.30948 | 4.75243 | -1 ft | 0 kts | 148° |
| 2026-05-07 17:35 | 52.30943 | 4.75248 | -1 ft | 0 kts | 148° |